createdAt,value
2022-09-03T00:00:08.375Z,101434.97
2022-09-03T00:03:00.757Z,101433.34
2022-09-03T00:05:52.709Z,101407.09
2022-09-03T00:08:47.028Z,101432.31
2022-09-03T00:11:43.341Z,101432.41
2022-09-03T00:14:34.640Z,101436.16
2022-09-03T00:17:22.620Z,101440.00
2022-09-03T00:20:12.669Z,101437.03
2022-09-03T00:23:01.321Z,101437.91
2022-09-03T00:25:54.100Z,101433.09
2022-09-03T00:28:45.719Z,101436.59
2022-09-03T00:31:30.967Z,101434.97
2022-09-03T00:34:34.976Z,101435.34
2022-09-03T00:37:20.430Z,101431.47
2022-09-03T00:40:10.863Z,101434.53
2022-09-03T00:43:01.995Z,101437.94
2022-09-03T00:45:57.465Z,101436.56
2022-09-03T00:48:55.197Z,101432.41
2022-09-03T00:51:50.633Z,101429.84
2022-09-03T00:54:54.527Z,101433.25
2022-09-03T00:57:56.886Z,101430.53
2022-09-03T01:00:43.735Z,101431.81
2022-09-03T01:03:42.159Z,101429.25
2022-09-03T01:06:50.100Z,101423.28
2022-09-03T01:09:35.315Z,101432.84
2022-09-03T01:12:26.563Z,101426.25
2022-09-03T01:15:15.401Z,101432.13
2022-09-03T01:18:05.567Z,101424.56
2022-09-03T01:20:54.020Z,101432.41
2022-09-03T01:23:54.690Z,101435.19
2022-09-03T01:26:40.184Z,101428.69
2022-09-03T01:29:35.493Z,101422.97
2022-09-03T01:32:30.632Z,101430.81
2022-09-03T01:35:24.245Z,101432.31
2022-09-03T01:38:25.753Z,101424.25
2022-09-03T01:41:44.402Z,101434.69
2022-09-03T01:44:43.511Z,101433.03
2022-09-03T01:47:50.060Z,101428.59
2022-09-03T01:50:57.942Z,101433.97
2022-09-03T01:54:03.359Z,101433.75
2022-09-03T01:56:59.362Z,101428.94
2022-09-03T02:00:00.076Z,101431.75
2022-09-03T02:02:49.036Z,101427.88
2022-09-03T02:05:35.688Z,101431.28
2022-09-03T02:08:21.089Z,101430.53
2022-09-03T02:11:08.762Z,101426.91
2022-09-03T02:13:57.784Z,101432.28
2022-09-03T02:16:44.825Z,101424.19
2022-09-03T02:19:31.504Z,101437.22
2022-09-03T02:22:17.212Z,101430.25
2022-09-03T02:25:02.691Z,101436.38
2022-09-03T02:27:49.274Z,101431.16
2022-09-03T02:30:34.574Z,101433.41
2022-09-03T02:33:20.237Z,101431.72
2022-09-03T02:36:08.007Z,101438.91
2022-09-03T02:38:53.222Z,101446.88
2022-09-03T02:41:38.498Z,101439.13
2022-09-03T02:44:31.722Z,101437.88
2022-09-03T02:47:18.016Z,101437.00
2022-09-03T02:50:03.610Z,101427.47
2022-09-03T02:52:49.288Z,101429.31
2022-09-03T02:55:35.006Z,101427.53
2022-09-03T02:58:20.279Z,101433.75
2022-09-03T03:01:06.135Z,101432.19
2022-09-03T03:03:52.128Z,101428.28
2022-09-03T03:06:37.420Z,101411.06
2022-09-03T03:09:22.795Z,101436.03
2022-09-03T03:12:10.218Z,101436.69
2022-09-03T03:14:55.427Z,101437.75
2022-09-03T03:17:40.650Z,101434.84
2022-09-03T03:20:26.157Z,101427.22
2022-09-03T03:23:11.954Z,101428.78
2022-09-03T03:26:00.609Z,101435.34
2022-09-03T03:28:49.494Z,101439.09
2022-09-03T03:31:35.049Z,101445.88
2022-09-03T03:34:20.421Z,101431.97
2022-09-03T03:37:06.231Z,101425.41
2022-09-03T03:39:51.432Z,101441.56
2022-09-03T03:42:36.949Z,101438.88
2022-09-03T03:45:22.362Z,101439.03
2022-09-03T03:48:08.005Z,101429.34
2022-09-03T03:50:53.809Z,101433.09
2022-09-03T03:53:39.268Z,101435.72
2022-09-03T03:56:26.132Z,101436.59
2022-09-03T03:59:11.656Z,101434.13
2022-09-03T04:01:57.098Z,101431.31
2022-09-03T04:04:42.566Z,101426.91
2022-09-03T04:07:27.766Z,101440.56
2022-09-03T04:10:13.431Z,101434.16
2022-09-03T04:12:58.589Z,101432.31
2022-09-03T04:15:44.284Z,101436.88
2022-09-03T04:18:30.453Z,101426.41
2022-09-03T04:21:19.565Z,101434.50
2022-09-03T04:24:05.460Z,101429.16
2022-09-03T04:26:50.990Z,101428.91
2022-09-03T04:29:36.815Z,101432.53
2022-09-03T04:32:41.388Z,101424.06
2022-09-03T04:35:31.706Z,101431.16
2022-09-03T04:38:17.321Z,101433.88
2022-09-03T04:41:02.987Z,101436.34
2022-09-03T04:43:51.582Z,101435.84
2022-09-03T04:46:37.143Z,101435.72
2022-09-03T04:49:22.568Z,101436.50
2022-09-03T04:52:08.090Z,101428.66
2022-09-03T04:54:53.568Z,101432.88
2022-09-03T04:57:38.749Z,101443.69
2022-09-03T05:00:24.409Z,101435.03
2022-09-03T05:03:09.862Z,101438.22
2022-09-03T05:05:56.085Z,101433.09
2022-09-03T05:08:41.456Z,101429.28
2022-09-03T05:11:27.608Z,101433.75
2022-09-03T05:14:13.040Z,101434.97
2022-09-03T05:16:58.415Z,101437.22
2022-09-03T05:19:43.810Z,101436.97
2022-09-03T05:22:29.017Z,101440.09
2022-09-03T05:25:14.608Z,101438.63
2022-09-03T05:28:00.414Z,101445.88
2022-09-03T05:30:45.831Z,101438.75
2022-09-03T05:33:35.648Z,101436.41
2022-09-03T05:36:23.048Z,101438.72
2022-09-03T05:39:08.534Z,101440.69
2022-09-03T05:41:53.998Z,101448.13
2022-09-03T05:44:39.434Z,101439.06
2022-09-03T05:47:24.621Z,101445.53
2022-09-03T05:50:10.825Z,101443.69
2022-09-03T05:52:55.983Z,101441.44
2022-09-03T05:55:41.510Z,101433.59
2022-09-03T05:58:36.405Z,101443.13
2022-09-03T06:01:22.859Z,101445.78
2022-09-03T06:04:09.565Z,101440.75
2022-09-03T06:06:56.192Z,101441.66
2022-09-03T06:09:41.957Z,101444.31
2022-09-03T06:12:27.586Z,101445.63
2022-09-03T06:15:12.732Z,101447.66
2022-09-03T06:17:58.239Z,101449.22
2022-09-03T06:20:43.347Z,101443.31
2022-09-03T06:23:29.884Z,101451.53
2022-09-03T06:26:15.276Z,101448.25
2022-09-03T06:29:00.926Z,101454.69
2022-09-03T06:31:48.466Z,101446.28
2022-09-03T06:34:33.875Z,101454.59
2022-09-03T06:37:19.579Z,101457.94
2022-09-03T06:40:04.955Z,101462.34
2022-09-03T06:43:02.502Z,101449.47
2022-09-03T06:45:57.895Z,101463.56
2022-09-03T06:48:45.654Z,101449.38
2022-09-03T06:51:32.927Z,101449.56
2022-09-03T06:54:18.600Z,101445.13
2022-09-03T06:57:04.408Z,101439.53
2022-09-03T06:59:49.909Z,101443.72
2022-09-03T07:02:35.236Z,101450.88
2022-09-03T07:05:20.897Z,101455.63
2022-09-03T07:08:06.140Z,101441.22
2022-09-03T07:10:51.633Z,101451.34
2022-09-03T07:13:37.713Z,101444.59
2022-09-03T07:16:24.202Z,101445.94
2022-09-03T07:19:09.912Z,101442.41
2022-09-03T07:21:55.023Z,101446.25
2022-09-03T07:24:40.472Z,101447.09
2022-09-03T07:27:26.441Z,101441.34
2022-09-03T07:30:12.054Z,101443.66
2022-09-03T07:33:01.746Z,101440.63
2022-09-03T07:35:47.626Z,101436.88
2022-09-03T07:38:33.731Z,101440.88
2022-09-03T07:41:28.522Z,101438.72
2022-09-03T07:44:16.319Z,101433.16
2022-09-03T07:47:02.925Z,101430.34
2022-09-03T07:49:48.761Z,101444.69
2022-09-03T07:52:34.035Z,101438.13
2022-09-03T07:55:20.070Z,101441.91
2022-09-03T07:58:05.975Z,101437.44
2022-09-03T08:00:54.043Z,101431.25
2022-09-03T08:03:43.013Z,101436.97
2022-09-03T08:06:29.460Z,101450.69
2022-09-03T08:09:14.742Z,101433.03
2022-09-03T08:12:00.260Z,101438.47
2022-09-03T08:14:45.639Z,101439.78
2022-09-03T08:17:31.156Z,101442.13
2022-09-03T08:20:16.644Z,101446.22
2022-09-03T08:23:02.932Z,101434.81
2022-09-03T08:25:48.437Z,101435.34
2022-09-03T08:28:35.084Z,101445.44
2022-09-03T08:31:21.778Z,101431.34
2022-09-03T08:34:07.458Z,101423.19
2022-09-03T08:36:54.360Z,101425.25
2022-09-03T08:39:39.850Z,101423.38
2022-09-03T08:42:28.821Z,101425.91
2022-09-03T08:45:17.724Z,101427.88
2022-09-03T08:48:10.217Z,101419.75
2022-09-03T08:50:59.924Z,101427.91
2022-09-03T08:53:50.835Z,101429.72
2022-09-03T08:56:38.693Z,101428.59
2022-09-03T08:59:30.077Z,101429.34
2022-09-03T09:02:39.354Z,101430.22
2022-09-03T09:05:38.974Z,101429.34
2022-09-03T09:08:32.951Z,101429.31
2022-09-03T09:11:29.585Z,101419.56
2022-09-03T09:14:36.902Z,101424.25
2022-09-03T09:17:31.614Z,101427.91
2022-09-03T09:20:35.495Z,101428.34
2022-09-03T09:23:29.493Z,101414.88
2022-09-03T09:26:19.074Z,101416.78
2022-09-03T09:29:09.528Z,101420.69
2022-09-03T09:31:55.967Z,101411.47
2022-09-03T09:34:41.967Z,101419.22
2022-09-03T09:37:27.602Z,101420.84
2022-09-03T09:40:23.037Z,101416.34
2022-09-03T09:43:16.129Z,101400.59
2022-09-03T09:46:09.958Z,101408.09
2022-09-03T09:48:57.189Z,101415.34
2022-09-03T09:51:43.056Z,101386.13
2022-09-03T09:54:28.432Z,101392.13
2022-09-03T09:57:17.805Z,101389.63
2022-09-03T10:00:13.375Z,101383.41
2022-09-03T10:02:58.965Z,101383.06
2022-09-03T10:05:56.004Z,101371.25
2022-09-03T10:08:42.899Z,101377.09
2022-09-03T10:11:28.247Z,101373.94
2022-09-03T10:14:19.001Z,101378.63
2022-09-03T10:17:10.648Z,101370.28
2022-09-03T10:20:23.056Z,101376.84
2022-09-03T10:23:15.741Z,101371.22
2022-09-03T10:26:10.090Z,101370.19
2022-09-03T10:28:58.189Z,101360.75
2022-09-03T10:31:48.550Z,101363.69
2022-09-03T10:34:49.170Z,101352.34
2022-09-03T10:37:52.908Z,101351.00
2022-09-03T10:40:42.637Z,101355.09
2022-09-03T10:43:38.884Z,101350.66
2022-09-03T10:46:27.600Z,101350.75
2022-09-03T10:49:20.681Z,101345.94
2022-09-03T10:52:35.184Z,101338.00
2022-09-03T10:55:29.165Z,101353.94
2022-09-03T10:58:33.241Z,101314.34
2022-09-03T11:01:38.748Z,101334.16
2022-09-03T11:04:27.175Z,101335.13
2022-09-03T11:07:13.841Z,101320.50
2022-09-03T11:10:17.946Z,101331.53
2022-09-03T11:13:06.491Z,101319.63
2022-09-03T11:15:54.128Z,101319.69
2022-09-03T11:18:50.308Z,101313.75
2022-09-03T11:21:36.614Z,101319.88
2022-09-03T11:24:26.980Z,101317.06
2022-09-03T11:27:20.076Z,101311.41
2022-09-03T11:30:10.280Z,101302.41
2022-09-03T11:32:59.683Z,101289.63
2022-09-03T11:35:45.727Z,101296.72
2022-09-03T11:38:32.069Z,101293.53
2022-09-03T11:41:26.176Z,101298.75
2022-09-03T11:44:17.145Z,101287.16
2022-09-03T11:47:13.721Z,101305.19
2022-09-03T11:50:06.674Z,101298.03
2022-09-03T11:53:08.894Z,101295.31
2022-09-03T11:55:55.701Z,101292.84
2022-09-03T11:58:43.478Z,101288.31
2022-09-03T12:01:29.518Z,101300.41
2022-09-03T12:04:18.134Z,101283.59
2022-09-03T12:07:14.610Z,101277.81
2022-09-03T12:10:24.849Z,101283.41
2022-09-03T12:13:16.051Z,101273.06
2022-09-03T12:16:20.079Z,101266.66
2022-09-03T12:19:12.589Z,101264.00
2022-09-03T12:21:58.059Z,101268.03
2022-09-03T12:24:44.451Z,101277.63
2022-09-03T12:27:33.255Z,101294.56
2022-09-03T12:30:21.440Z,101272.34
2022-09-03T12:33:07.642Z,101283.84
2022-09-03T12:36:00.705Z,101272.38
2022-09-03T12:39:10.552Z,101271.53
2022-09-03T12:42:04.022Z,101253.09
2022-09-03T12:44:49.698Z,101254.31
2022-09-03T12:47:39.178Z,101243.75
2022-09-03T12:50:25.112Z,101251.63
2022-09-03T12:53:16.669Z,101237.25
2022-09-03T12:56:02.760Z,101246.94
2022-09-03T12:58:56.697Z,101239.84
2022-09-03T13:01:49.443Z,101247.56
2022-09-03T13:04:36.715Z,101240.44
2022-09-03T13:07:29.875Z,101233.16
2022-09-03T13:10:42.189Z,101235.56
2022-09-03T13:13:32.105Z,101232.75
2022-09-03T13:16:41.472Z,101229.94
2022-09-03T13:19:45.573Z,101226.47
2022-09-03T13:22:49.218Z,101226.38
2022-09-03T13:25:41.350Z,101232.50
2022-09-03T13:28:27.669Z,101236.28
2022-09-03T13:31:25.800Z,101234.34
2022-09-03T13:34:16.819Z,101224.19
2022-09-03T13:37:08.434Z,101227.59
2022-09-03T13:39:55.637Z,101225.84
2022-09-03T13:42:42.127Z,101235.19
2022-09-03T13:45:44.230Z,101227.91
2022-09-03T13:48:54.953Z,101231.94
2022-09-03T13:51:49.774Z,101225.25
2022-09-03T13:54:48.982Z,101219.22
2022-09-03T13:57:40.077Z,101225.16
2022-09-03T14:00:43.037Z,101215.97
2022-09-03T14:03:49.280Z,101213.88
2022-09-03T14:06:38.137Z,101222.81
2022-09-03T14:09:31.121Z,101212.19
2022-09-03T14:12:23.924Z,101212.94
2022-09-03T14:15:29.673Z,101209.34
2022-09-03T14:18:33.902Z,101205.78
2022-09-03T14:21:22.762Z,101204.09
2022-09-03T14:24:29.429Z,101215.13
2022-09-03T14:27:22.577Z,101214.28
2022-09-03T14:30:17.914Z,101206.28
2022-09-03T14:33:03.366Z,101203.13
2022-09-03T14:35:58.733Z,101215.69
2022-09-03T14:38:56.242Z,101219.38
2022-09-03T14:42:10.293Z,101211.00
2022-09-03T14:44:58.313Z,101214.75
2022-09-03T14:47:50.833Z,101204.97
2022-09-03T14:50:45.416Z,101206.78
2022-09-03T14:53:49.559Z,101213.56
2022-09-03T14:56:42.880Z,101214.34
2022-09-03T14:59:31.438Z,101219.13
2022-09-03T15:02:19.483Z,101202.03
2022-09-03T15:05:23.821Z,101204.94
2022-09-03T15:08:27.699Z,101212.03
2022-09-03T15:11:18.163Z,101203.19
2022-09-03T15:14:03.353Z,101208.16
2022-09-03T15:17:08.904Z,101216.56
2022-09-03T15:20:14.260Z,101213.53
2022-09-03T15:23:02.524Z,101213.53
2022-09-03T15:26:06.442Z,101218.94
2022-09-03T15:28:59.304Z,101213.81
2022-09-03T15:31:52.673Z,101210.03
2022-09-03T15:34:58.980Z,101212.22
2022-09-03T15:37:48.991Z,101214.53
2022-09-03T15:40:34.186Z,101206.50
2022-09-03T15:43:27.420Z,101196.81
2022-09-03T15:46:28.994Z,101207.75
2022-09-03T15:49:21.658Z,101208.97
2022-09-03T15:52:27.499Z,101226.94
2022-09-03T15:55:15.181Z,101215.47
2022-09-03T15:58:11.094Z,101216.25
2022-09-03T16:01:00.280Z,101218.34
2022-09-03T16:03:56.118Z,101213.63
2022-09-03T16:06:44.683Z,101219.53
2022-09-03T16:09:37.757Z,101218.38
2022-09-03T16:12:44.157Z,101226.03
2022-09-03T16:15:34.478Z,101219.09
2022-09-03T16:18:20.023Z,101220.56
2022-09-03T16:21:12.292Z,101223.41
2022-09-03T16:24:05.230Z,101223.97
2022-09-03T16:27:00.204Z,101220.34
2022-09-03T16:29:54.628Z,101224.75
2022-09-03T16:32:42.900Z,101226.69
2022-09-03T16:35:42.486Z,101229.09
2022-09-03T16:38:32.709Z,101227.72
2022-09-03T16:41:18.609Z,101226.97
2022-09-03T16:44:10.336Z,101233.91
2022-09-03T16:47:04.133Z,101238.25
2022-09-03T16:50:09.062Z,101237.13
2022-09-03T16:55:53.666Z,101234.59
2022-09-03T16:58:51.150Z,101236.03
2022-09-03T17:01:36.572Z,101237.75
2022-09-03T17:04:39.556Z,101233.22
2022-09-03T17:07:25.028Z,101230.16
2022-09-03T17:10:23.307Z,101231.63
2022-09-03T17:13:17.138Z,101235.41
2022-09-03T17:16:20.320Z,101235.59
2022-09-03T17:19:23.229Z,101232.78
2022-09-03T17:22:10.269Z,101235.53
2022-09-03T17:25:05.176Z,101230.38
2022-09-03T17:28:00.532Z,101237.47
2022-09-03T17:30:57.039Z,101238.09
2022-09-03T17:33:56.553Z,101236.31
2022-09-03T17:36:51.034Z,101236.94
2022-09-03T17:39:48.753Z,101232.66
2022-09-03T17:42:38.453Z,101237.03
2022-09-03T17:45:36.990Z,101248.09
2022-09-03T17:48:43.751Z,101244.63
2022-09-03T17:51:48.655Z,101246.75
2022-09-03T17:54:44.493Z,101254.13
2022-09-03T17:57:32.636Z,101263.25
2022-09-03T18:00:37.893Z,101263.03
2022-09-03T18:03:26.121Z,101263.78
2022-09-03T18:06:27.248Z,101270.09
2022-09-03T18:09:22.238Z,101275.75
2022-09-03T18:12:11.684Z,101270.91
2022-09-03T18:15:07.583Z,101279.34
2022-09-03T18:18:02.988Z,101277.53
2022-09-03T18:21:30.884Z,101291.06
2022-09-03T18:25:00.151Z,101294.72
2022-09-03T18:28:09.905Z,101294.06
2022-09-03T18:31:13.832Z,101309.88
2022-09-03T18:34:17.677Z,101315.72
2022-09-03T18:37:22.100Z,101323.97
2022-09-03T18:40:27.719Z,101322.22
2022-09-03T18:43:44.009Z,101324.94
2022-09-03T18:50:53.620Z,101336.81
2022-09-03T18:54:08.149Z,101333.13
2022-09-03T18:57:12.343Z,101332.97
2022-09-03T19:00:29.020Z,101337.44
2022-09-03T19:04:04.018Z,101330.34
2022-09-03T19:07:18.018Z,101347.69
2022-09-03T19:10:26.735Z,101342.78
2022-09-03T19:13:37.248Z,101350.84
2022-09-03T19:16:44.103Z,101350.00
2022-09-03T19:20:02.918Z,101349.78
2022-09-03T19:23:06.861Z,101353.44
2022-09-03T19:26:15.255Z,101347.88
2022-09-03T19:29:22.271Z,101353.19
2022-09-03T19:32:36.397Z,101352.78
2022-09-03T19:35:45.764Z,101354.34
2022-09-03T19:38:59.290Z,101361.56
2022-09-03T19:42:14.940Z,101360.09
2022-09-03T19:45:21.737Z,101359.44
2022-09-03T19:48:32.070Z,101369.84
2022-09-03T19:51:50.881Z,101368.66
2022-09-03T19:54:55.833Z,101369.47
2022-09-03T19:58:02.322Z,101360.91
2022-09-03T20:01:06.965Z,101367.91
2022-09-03T20:04:11.726Z,101373.59
2022-09-03T20:07:17.014Z,101365.47
2022-09-03T20:10:22.236Z,101372.59
2022-09-03T20:13:15.095Z,101373.63
2022-09-03T20:16:22.034Z,101374.50
2022-09-03T20:19:26.298Z,101374.31
2022-09-03T20:22:11.519Z,101362.09
2022-09-03T20:25:16.019Z,101382.56
2022-09-03T20:28:01.296Z,101385.63
2022-09-03T20:30:51.105Z,101386.13
2022-09-03T20:33:55.416Z,101391.91
2022-09-03T20:36:54.346Z,101389.84
2022-09-03T20:39:58.790Z,101389.19
2022-09-03T20:43:03.331Z,101393.16
2022-09-03T20:45:48.637Z,101393.66
2022-09-03T20:48:52.651Z,101394.81
2022-09-03T20:51:53.266Z,101394.50
2022-09-03T20:54:47.397Z,101401.78
2022-09-03T20:57:51.659Z,101398.66
2022-09-03T21:00:58.026Z,101402.66
2022-09-03T21:03:54.142Z,101395.63
2022-09-03T21:06:46.310Z,101404.56
2022-09-03T21:09:43.606Z,101407.75
2022-09-03T21:12:35.779Z,101406.63
2022-09-03T21:15:33.073Z,101410.97
2022-09-03T21:18:41.519Z,101413.16
2022-09-03T21:21:38.405Z,101411.16
2022-09-03T21:24:23.588Z,101413.38
2022-09-03T21:27:20.870Z,101415.72
2022-09-03T21:30:08.382Z,101415.72
2022-09-03T21:33:02.659Z,101419.31
2022-09-03T21:35:58.402Z,101416.88
2022-09-03T21:38:49.154Z,101417.25
2022-09-03T21:41:38.039Z,101415.22
2022-09-03T21:44:43.994Z,101425.59
2022-09-03T21:47:30.761Z,101425.69
2022-09-03T21:50:16.792Z,101426.53
2022-09-03T21:53:15.835Z,101428.44
2022-09-03T21:56:21.687Z,101430.97
2022-09-03T21:59:30.925Z,101437.78
2022-09-03T22:02:30.088Z,101438.81
2022-09-03T22:05:16.321Z,101447.28
2022-09-03T22:08:12.150Z,101445.59
2022-09-03T22:11:10.859Z,101431.13
2022-09-03T22:14:15.917Z,101430.75
2022-09-03T22:17:10.051Z,101435.75
2022-09-03T22:19:55.558Z,101436.50
2022-09-03T22:22:40.779Z,101436.72
2022-09-03T22:25:32.250Z,101438.34
2022-09-03T22:28:23.124Z,101422.31
2022-09-03T22:31:35.433Z,101442.09
2022-09-03T22:34:33.347Z,101441.44
2022-09-03T22:37:39.173Z,101445.97
2022-09-03T22:40:44.994Z,101449.88
2022-09-03T22:43:37.780Z,101450.91
2022-09-03T22:46:27.501Z,101455.72
2022-09-03T22:49:13.006Z,101462.34
2022-09-03T22:52:14.907Z,101455.97
2022-09-03T22:55:17.591Z,101460.91
2022-09-03T22:58:08.918Z,101455.53
2022-09-03T23:00:59.019Z,101457.56
2022-09-03T23:03:44.636Z,101456.88
2022-09-03T23:06:36.218Z,101459.16
2022-09-03T23:09:22.463Z,101461.91
2022-09-03T23:12:14.834Z,101460.03
2022-09-03T23:15:02.989Z,101468.88
2022-09-03T23:17:53.280Z,101470.75
2022-09-03T23:20:40.881Z,101463.59
2022-09-03T23:23:29.642Z,101463.00
2022-09-03T23:26:23.454Z,101467.19
2022-09-03T23:29:12.140Z,101458.97
2022-09-03T23:31:58.665Z,101453.69
2022-09-03T23:34:44.248Z,101450.22
2022-09-03T23:37:33.846Z,101460.63
2022-09-03T23:40:28.372Z,101464.59
2022-09-03T23:43:37.398Z,101462.56
2022-09-03T23:46:31.615Z,101469.13
2022-09-03T23:49:28.824Z,101461.56
2022-09-03T23:52:20.885Z,101461.25
2022-09-03T23:55:21.462Z,101464.91
2022-09-03T23:58:09.561Z,101458.94
